sensor_id;sensor_type;location;lat;lon;timestamp;pressure;altitude;pressure_sealevel;temperature;humidity
43818;BME280;29868;47.360;18.984;2022-08-01T00:00:08;100132.13;;;15.41;100.00
43818;BME280;29868;47.360;18.984;2022-08-01T00:02:34;100128.72;;;15.33;100.00
43818;BME280;29868;47.360;18.984;2022-08-01T00:05:00;100131.34;;;15.35;100.00
43818;BME280;29868;47.360;18.984;2022-08-01T00:07:25;100133.94;;;15.33;100.00
43818;BME280;29868;47.360;18.984;2022-08-01T00:09:51;100133.09;;;15.29;100.00
43818;BME280;29868;47.360;18.984;2022-08-01T00:12:16;100129.69;;;15.20;100.00
43818;BME280;29868;47.360;18.984;2022-08-01T00:14:42;100128.84;;;15.18;100.00
43818;BME280;29868;47.360;18.984;2022-08-01T00:17:07;100126.28;;;15.10;100.00
43818;BME280;29868;47.360;18.984;2022-08-01T00:19:33;100128.91;;;15.08;100.00
43818;BME280;29868;47.360;18.984;2022-08-01T00:21:59;100119.34;;;15.01;100.00
43818;BME280;29868;47.360;18.984;2022-08-01T00:24:24;100128.06;;;15.02;100.00
43818;BME280;29868;47.360;18.984;2022-08-01T00:26:50;100122.84;;;14.99;100.00
43818;BME280;29868;47.360;18.984;2022-08-01T00:29:15;100115.03;;;14.94;100.00
43818;BME280;29868;47.360;18.984;2022-08-01T00:31:40;100115.91;;;14.95;100.00
43818;BME280;29868;47.360;18.984;2022-08-01T00:34:06;100106.28;;;14.98;100.00
43818;BME280;29868;47.360;18.984;2022-08-01T00:36:31;100107.25;;;14.87;100.00
43818;BME280;29868;47.360;18.984;2022-08-01T00:38:56;100109.88;;;14.83;100.00
43818;BME280;29868;47.360;18.984;2022-08-01T00:41:22;100109.94;;;14.74;100.00
43818;BME280;29868;47.360;18.984;2022-08-01T00:43:47;100100.38;;;14.64;100.00
43818;BME280;29868;47.360;18.984;2022-08-01T00:46:12;100104.78;;;14.59;100.00
43818;BME280;29868;47.360;18.984;2022-08-01T00:48:38;100100.44;;;14.53;100.00
43818;BME280;29868;47.360;18.984;2022-08-01T00:51:04;100101.31;;;14.55;100.00
43818;BME280;29868;47.360;18.984;2022-08-01T00:53:30;100102.19;;;14.50;100.00
43818;BME280;29868;47.360;18.984;2022-08-01T00:55:56;100105.66;;;14.46;100.00
43818;BME280;29868;47.360;18.984;2022-08-01T00:58:22;100109.16;;;14.45;100.00
43818;BME280;29868;47.360;18.984;2022-08-01T01:00:48;100105.66;;;14.46;100.00
43818;BME280;29868;47.360;18.984;2022-08-01T01:03:13;100110.88;;;14.46;100.00
43818;BME280;29868;47.360;18.984;2022-08-01T07:30:47;100123.16;;;29.60;39.57
43818;BME280;29868;47.360;18.984;2022-08-01T07:33:12;100128.88;;;29.14;39.81
43818;BME280;29868;47.360;18.984;2022-08-01T07:35:38;100124.06;;;29.19;39.93
43818;BME280;29868;47.360;18.984;2022-08-01T07:38:06;100123.16;;;29.60;40.01
43818;BME280;29868;47.360;18.984;2022-08-01T07:40:31;100124.34;;;29.69;39.28
43818;BME280;29868;47.360;18.984;2022-08-01T07:42:57;100126.22;;;29.94;39.20
43818;BME280;29868;47.360;18.984;2022-08-01T07:45:23;100121.69;;;29.42;39.04
43818;BME280;29868;47.360;18.984;2022-08-01T07:47:49;100121.34;;;29.33;40.95
43818;BME280;29868;47.360;18.984;2022-08-01T07:50:17;100132.00;;;29.88;40.44
43818;BME280;29868;47.360;18.984;2022-08-01T07:52:42;100114.03;;;29.90;36.94
43818;BME280;29868;47.360;18.984;2022-08-01T07:55:08;100122.53;;;30.22;35.11
43818;BME280;29868;47.360;18.984;2022-08-01T07:57:34;100123.63;;;29.79;35.15
43818;BME280;29868;47.360;18.984;2022-08-01T08:00:00;100117.44;;;29.52;35.91
43818;BME280;29868;47.360;18.984;2022-08-01T08:02:25;100120.19;;;29.77;35.83
43818;BME280;29868;47.360;18.984;2022-08-01T08:04:51;100118.91;;;29.70;36.12
43818;BME280;29868;47.360;18.984;2022-08-01T08:07:16;100123.66;;;29.92;35.61
43818;BME280;29868;47.360;18.984;2022-08-01T08:09:42;100120.63;;;29.84;36.39
43818;BME280;29868;47.360;18.984;2022-08-01T08:12:07;100123.19;;;29.73;37.40
43818;BME280;29868;47.360;18.984;2022-08-01T08:14:32;100122.28;;;29.05;37.44
43818;BME280;29868;47.360;18.984;2022-08-01T08:16:59;100122.94;;;28.39;37.87
43818;BME280;29868;47.360;18.984;2022-08-01T08:19:24;100120.28;;;28.09;37.81
43818;BME280;29868;47.360;18.984;2022-08-01T08:21:49;100120.25;;;28.39;38.02
43818;BME280;29868;47.360;18.984;2022-08-01T08:24:15;100114.88;;;28.25;39.68
43818;BME280;29868;47.360;18.984;2022-08-01T08:26:47;100127.34;;;28.10;40.41
43818;BME280;29868;47.360;18.984;2022-08-01T08:29:13;100124.13;;;28.33;40.23
43818;BME280;29868;47.360;18.984;2022-08-01T08:31:39;100133.84;;;28.20;40.81
43818;BME280;29868;47.360;18.984;2022-08-01T08:34:04;100138.03;;;28.10;40.68
43818;BME280;29868;47.360;18.984;2022-08-01T08:36:31;100147.78;;;28.11;41.62
43818;BME280;29868;47.360;18.984;2022-08-01T08:38:56;100146.41;;;27.74;41.54
43818;BME280;29868;47.360;18.984;2022-08-01T08:41:22;100152.81;;;27.55;41.80
43818;BME280;29868;47.360;18.984;2022-08-01T08:43:48;100148.53;;;27.37;43.51
43818;BME280;29868;47.360;18.984;2022-08-01T08:46:14;100151.97;;;27.55;43.22
43818;BME280;29868;47.360;18.984;2022-08-01T08:48:40;100154.03;;;27.34;43.03
43818;BME280;29868;47.360;18.984;2022-08-01T08:51:08;100153.53;;;27.11;42.94
43818;BME280;29868;47.360;18.984;2022-08-01T08:53:35;100156.63;;;27.20;43.19
43818;BME280;29868;47.360;18.984;2022-08-01T08:56:02;100157.47;;;27.04;43.38
43818;BME280;29868;47.360;18.984;2022-08-01T08:58:27;100154.91;;;27.34;43.45
43818;BME280;29868;47.360;18.984;2022-08-01T09:00:56;100154.84;;;27.20;43.89
43818;BME280;29868;47.360;18.984;2022-08-01T09:03:22;100157.47;;;27.04;43.71
43818;BME280;29868;47.360;18.984;2022-08-01T09:05:47;100158.97;;;27.26;43.47
43818;BME280;29868;47.360;18.984;2022-08-01T09:08:12;100156.69;;;27.50;43.54
43818;BME280;29868;47.360;18.984;2022-08-01T09:10:38;100150.22;;;27.54;43.98
43818;BME280;29868;47.360;18.984;2022-08-01T09:13:11;100146.13;;;28.08;42.80
43818;BME280;29868;47.360;18.984;2022-08-01T09:15:54;100149.22;;;27.86;42.76
43818;BME280;29868;47.360;18.984;2022-08-01T09:18:39;100145.38;;;27.76;41.80
43818;BME280;29868;47.360;18.984;2022-08-01T09:21:18;100146.88;;;28.10;42.35
43818;BME280;29868;47.360;18.984;2022-08-01T09:26:15;100158.13;;;28.60;41.99
43818;BME280;29868;47.360;18.984;2022-08-01T09:28:41;100161.16;;;28.97;40.89
43818;BME280;29868;47.360;18.984;2022-08-01T09:31:12;100157.75;;;28.80;40.76
43818;BME280;29868;47.360;18.984;2022-08-01T09:36:13;100152.25;;;29.52;39.76
43818;BME280;29868;47.360;18.984;2022-08-01T09:38:38;100160.47;;;28.93;40.74
43818;BME280;29868;47.360;18.984;2022-08-01T09:41:04;100154.59;;;28.74;39.21
43818;BME280;29868;47.360;18.984;2022-08-01T09:43:30;100157.56;;;28.69;39.62
43818;BME280;29868;47.360;18.984;2022-08-01T09:45:56;100153.56;;;28.62;38.88
43818;BME280;29868;47.360;18.984;2022-08-01T09:48:22;100153.88;;;28.13;39.97
43818;BME280;29868;47.360;18.984;2022-08-01T09:50:50;100150.88;;;28.48;39.97
43818;BME280;29868;47.360;18.984;2022-08-01T09:53:16;100145.72;;;28.59;39.90
43818;BME280;29868;47.360;18.984;2022-08-01T09:55:42;100147.63;;;29.00;40.12
43818;BME280;29868;47.360;18.984;2022-08-01T09:58:08;100144.44;;;28.79;38.91
43818;BME280;29868;47.360;18.984;2022-08-01T10:00:34;100149.91;;;29.06;38.78
43818;BME280;29868;47.360;18.984;2022-08-01T10:03:19;100152.41;;;29.36;38.42
43818;BME280;29868;47.360;18.984;2022-08-01T10:05:44;100147.63;;;29.54;38.68
43818;BME280;29868;47.360;18.984;2022-08-01T10:08:10;100154.47;;;29.72;39.85
43818;BME280;29868;47.360;18.984;2022-08-01T10:10:37;100151.66;;;29.61;38.02
43818;BME280;29868;47.360;18.984;2022-08-01T10:13:03;100152.53;;;29.20;38.90
43818;BME280;29868;47.360;18.984;2022-08-01T10:15:30;100153.78;;;29.15;39.56
43818;BME280;29868;47.360;18.984;2022-08-01T10:17:58;100156.63;;;29.26;38.23
43818;BME280;29868;47.360;18.984;2022-08-01T10:20:27;100155.13;;;29.89;37.36
43818;BME280;29868;47.360;18.984;2022-08-01T10:22:54;100141.56;;;30.04;37.49
43818;BME280;29868;47.360;18.984;2022-08-01T10:25:21;100145.63;;;30.10;36.49
43818;BME280;29868;47.360;18.984;2022-08-01T10:27:52;100148.56;;;30.58;35.68
43818;BME280;29868;47.360;18.984;2022-08-01T10:30:20;100144.72;;;30.37;35.86
43818;BME280;29868;47.360;18.984;2022-08-01T10:32:46;100144.69;;;30.75;34.99
43818;BME280;29868;47.360;18.984;2022-08-01T10:35:13;100146.13;;;31.29;34.66
43818;BME280;29868;47.360;18.984;2022-08-01T10:37:43;100139.59;;;31.33;34.53
43818;BME280;29868;47.360;18.984;2022-08-01T10:40:12;100132.31;;;31.35;35.06
43818;BME280;29868;47.360;18.984;2022-08-01T10:42:39;100133.50;;;30.94;34.65
43818;BME280;29868;47.360;18.984;2022-08-01T10:45:07;100130.44;;;30.74;34.53
43818;BME280;29868;47.360;18.984;2022-08-01T10:47:40;100128.72;;;30.48;35.21
43818;BME280;29868;47.360;18.984;2022-08-01T10:50:15;100126.84;;;29.85;34.61
43818;BME280;29868;47.360;18.984;2022-08-01T10:55:45;100114.47;;;30.22;36.16
43818;BME280;29868;47.360;18.984;2022-08-01T10:58:11;100122.34;;;29.85;35.27
43818;BME280;29868;47.360;18.984;2022-08-01T11:00:36;100117.91;;;30.37;35.32
43818;BME280;29868;47.360;18.984;2022-08-01T11:03:03;100120.47;;;30.76;36.13
43818;BME280;29868;47.360;18.984;2022-08-01T11:05:35;100119.38;;;30.79;35.52
43818;BME280;29868;47.360;18.984;2022-08-01T11:08:24;100114.09;;;30.90;35.62
43818;BME280;29868;47.360;18.984;2022-08-01T11:11:00;100119.00;;;30.96;35.99
43818;BME280;29868;47.360;18.984;2022-08-01T11:16:27;100108.22;;;31.09;35.53
43818;BME280;29868;47.360;18.984;2022-08-01T11:18:53;100102.53;;;30.64;34.36
43818;BME280;29868;47.360;18.984;2022-08-01T11:21:18;100102.34;;;30.42;34.94
43818;BME280;29868;47.360;18.984;2022-08-01T11:23:48;100104.16;;;30.03;34.49
43818;BME280;29868;47.360;18.984;2022-08-01T11:26:15;100101.59;;;30.01;35.07
43818;BME280;29868;47.360;18.984;2022-08-01T11:28:42;100106.75;;;30.43;34.96
43818;BME280;29868;47.360;18.984;2022-08-01T11:41:16;100097.06;;;30.53;33.71
43818;BME280;29868;47.360;18.984;2022-08-01T11:44:05;100088.03;;;30.92;34.22
43818;BME280;29868;47.360;18.984;2022-08-01T11:46:57;100085.25;;;31.29;33.11
43818;BME280;29868;47.360;18.984;2022-08-01T11:54:35;100094.25;;;30.93;34.20
43818;BME280;29868;47.360;18.984;2022-08-01T11:57:09;100098.97;;;31.13;34.24
43818;BME280;29868;47.360;18.984;2022-08-01T11:59:44;100091.06;;;30.75;33.75
43818;BME280;29868;47.360;18.984;2022-08-01T12:02:31;100095.00;;;30.82;33.24
43818;BME280;29868;47.360;18.984;2022-08-01T12:05:06;100096.84;;;30.82;33.33
43818;BME280;29868;47.360;18.984;2022-08-01T12:07:34;100099.47;;;30.94;32.35
43818;BME280;29868;47.360;18.984;2022-08-01T12:10:17;100100.72;;;30.77;33.20
43818;BME280;29868;47.360;18.984;2022-08-01T12:12:47;100094.06;;;30.70;33.34
43818;BME280;29868;47.360;18.984;2022-08-01T12:15:14;100100.78;;;30.89;33.07
43818;BME280;29868;47.360;18.984;2022-08-01T12:17:42;100097.41;;;30.74;32.80
43818;BME280;29868;47.360;18.984;2022-08-01T12:20:11;100099.75;;;30.53;33.68
43818;BME280;29868;47.360;18.984;2022-08-01T12:22:37;100098.91;;;31.02;32.88
43818;BME280;29868;47.360;18.984;2022-08-01T12:25:14;100103.28;;;30.79;32.50
43818;BME280;29868;47.360;18.984;2022-08-01T12:27:41;100101.84;;;30.99;32.59
43818;BME280;29868;47.360;18.984;2022-08-01T12:30:15;100099.03;;;30.76;32.55
43818;BME280;29868;47.360;18.984;2022-08-01T12:32:43;100088.84;;;30.05;31.79
43818;BME280;29868;47.360;18.984;2022-08-01T12:35:23;100093.44;;;30.03;33.64
43818;BME280;29868;47.360;18.984;2022-08-01T12:37:51;100097.28;;;30.12;33.69
43818;BME280;29868;47.360;18.984;2022-08-01T12:40:27;100086.81;;;30.34;32.13
43818;BME280;29868;47.360;18.984;2022-08-01T12:42:55;100092.19;;;30.47;33.13
43818;BME280;29868;47.360;18.984;2022-08-01T12:45:25;100088.44;;;30.37;32.78
43818;BME280;29868;47.360;18.984;2022-08-01T12:47:52;100090.47;;;30.46;34.29
43818;BME280;29868;47.360;18.984;2022-08-01T12:50:20;100087.47;;;30.38;34.15
43818;BME280;29868;47.360;18.984;2022-08-01T12:52:46;100084.59;;;30.28;34.17
43818;BME280;29868;47.360;18.984;2022-08-01T12:55:17;100083.16;;;29.84;35.53
43818;BME280;29868;47.360;18.984;2022-08-01T12:57:45;100077.59;;;30.00;35.04
43818;BME280;29868;47.360;18.984;2022-08-01T13:00:25;100086.41;;;30.27;35.87
43818;BME280;29868;47.360;18.984;2022-08-01T13:05:44;100087.19;;;30.66;34.82
43818;BME280;29868;47.360;18.984;2022-08-01T13:08:14;100073.16;;;30.75;34.73
43818;BME280;29868;47.360;18.984;2022-08-01T13:10:41;100075.97;;;30.98;34.51
43818;BME280;29868;47.360;18.984;2022-08-01T13:13:08;100072.34;;;30.99;35.42
43818;BME280;29868;47.360;18.984;2022-08-01T13:15:36;100069.31;;;31.04;34.34
43818;BME280;29868;47.360;18.984;2022-08-01T13:18:26;100072.00;;;31.04;33.87
43818;BME280;29868;47.360;18.984;2022-08-01T13:21:21;100075.41;;;30.69;34.74
43818;BME280;29868;47.360;18.984;2022-08-01T13:26:46;100068.34;;;30.55;34.94
43818;BME280;29868;47.360;18.984;2022-08-01T13:29:14;100072.00;;;31.04;34.55
43818;BME280;29868;47.360;18.984;2022-08-01T13:31:41;100059.31;;;30.82;34.91
43818;BME280;29868;47.360;18.984;2022-08-01T13:34:07;100068.44;;;30.66;34.57
43818;BME280;29868;47.360;18.984;2022-08-01T13:36:33;100061.50;;;30.38;34.87
43818;BME280;29868;47.360;18.984;2022-08-01T13:38:59;100067.00;;;30.86;34.09
43818;BME280;29868;47.360;18.984;2022-08-01T13:41:45;100064.09;;;31.13;34.16
43818;BME280;29868;47.360;18.984;2022-08-01T13:44:11;100059.06;;;30.72;33.49
43818;BME280;29868;47.360;18.984;2022-08-01T13:46:37;100064.56;;;30.70;33.76
43818;BME280;29868;47.360;18.984;2022-08-01T13:49:05;100061.88;;;30.70;33.74
43818;BME280;29868;47.360;18.984;2022-08-01T13:51:30;100063.59;;;30.71;33.70
43818;BME280;29868;47.360;18.984;2022-08-01T13:53:56;100060.81;;;30.60;34.56
43818;BME280;29868;47.360;18.984;2022-08-01T13:56:22;100047.66;;;30.94;35.04
43818;BME280;29868;47.360;18.984;2022-08-01T13:58:47;100052.22;;;31.05;33.93
43818;BME280;29868;47.360;18.984;2022-08-01T14:01:13;100050.56;;;30.54;33.01
43818;BME280;29868;47.360;18.984;2022-08-01T14:03:38;100056.88;;;30.53;33.51
43818;BME280;29868;47.360;18.984;2022-08-01T14:06:04;100065.25;;;30.61;34.66
43818;BME280;29868;47.360;18.984;2022-08-01T14:08:29;100056.94;;;30.64;34.21
43818;BME280;29868;47.360;18.984;2022-08-01T14:10:55;100051.16;;;30.70;34.44
43818;BME280;29868;47.360;18.984;2022-08-01T14:13:24;100059.25;;;30.45;33.87
43818;BME280;29868;47.360;18.984;2022-08-01T14:15:50;100049.16;;;30.61;33.66
43818;BME280;29868;47.360;18.984;2022-08-01T14:18:16;100043.97;;;31.08;33.93
43818;BME280;29868;47.360;18.984;2022-08-01T14:20:41;100045.84;;;31.18;34.08
43818;BME280;29868;47.360;18.984;2022-08-01T14:23:08;100052.16;;;31.30;33.82
43818;BME280;29868;47.360;18.984;2022-08-01T14:25:33;100052.34;;;31.03;34.64
43818;BME280;29868;47.360;18.984;2022-08-01T14:27:59;100045.25;;;31.02;35.13
43818;BME280;29868;47.360;18.984;2022-08-01T14:30:24;100051.47;;;30.78;34.57
43818;BME280;29868;47.360;18.984;2022-08-01T14:32:50;100045.13;;;30.80;34.30
43818;BME280;29868;47.360;18.984;2022-08-01T14:35:15;100040.31;;;30.85;35.33
43818;BME280;29868;47.360;18.984;2022-08-01T14:37:40;100045.03;;;31.05;34.74
43818;BME280;29868;47.360;18.984;2022-08-01T14:40:07;100047.91;;;31.39;34.25
43818;BME280;29868;47.360;18.984;2022-08-01T14:42:37;100054.84;;;31.17;34.31
43818;BME280;29868;47.360;18.984;2022-08-01T14:45:03;100038.50;;;31.33;34.00
43818;BME280;29868;47.360;18.984;2022-08-01T14:47:29;100052.53;;;31.48;34.75
43818;BME280;29868;47.360;18.984;2022-08-01T14:49:54;100042.97;;;31.33;34.76
43818;BME280;29868;47.360;18.984;2022-08-01T14:52:20;100047.63;;;31.31;34.95
43818;BME280;29868;47.360;18.984;2022-08-01T14:54:45;100046.56;;;31.20;34.87
43818;BME280;29868;47.360;18.984;2022-08-01T14:57:10;100048.28;;;30.97;35.30
43818;BME280;29868;47.360;18.984;2022-08-01T14:59:36;100040.22;;;31.21;35.31
43818;BME280;29868;47.360;18.984;2022-08-01T15:02:01;100046.41;;;31.35;35.75
43818;BME280;29868;47.360;18.984;2022-08-01T15:04:26;100041.03;;;30.87;36.11
43818;BME280;29868;47.360;18.984;2022-08-01T15:06:53;100038.47;;;30.85;35.86
43818;BME280;29868;47.360;18.984;2022-08-01T15:09:18;100038.88;;;30.92;36.72
43818;BME280;29868;47.360;18.984;2022-08-01T15:11:44;100040.66;;;30.67;36.70
43818;BME280;29868;47.360;18.984;2022-08-01T15:14:11;100038.91;;;30.79;36.49
43818;BME280;29868;47.360;18.984;2022-08-01T15:16:55;100045.38;;;31.00;36.36
43818;BME280;29868;47.360;18.984;2022-08-01T15:19:20;100034.41;;;31.27;36.34
43818;BME280;29868;47.360;18.984;2022-08-01T15:21:45;100052.69;;;31.22;35.97
43818;BME280;29868;47.360;18.984;2022-08-01T15:24:11;100048.13;;;30.88;36.59
43818;BME280;29868;47.360;18.984;2022-08-01T15:26:36;100049.88;;;30.63;36.58
43818;BME280;29868;47.360;18.984;2022-08-01T15:29:01;100045.44;;;30.51;36.42
43818;BME280;29868;47.360;18.984;2022-08-01T15:31:27;100048.63;;;30.56;37.08
43818;BME280;29868;47.360;18.984;2022-08-01T15:33:52;100047.00;;;30.17;35.43
43818;BME280;29868;47.360;18.984;2022-08-01T15:36:18;100047.06;;;30.02;36.46
43818;BME280;29868;47.360;18.984;2022-08-01T15:38:43;100038.63;;;30.21;36.46
43818;BME280;29868;47.360;18.984;2022-08-01T15:41:08;100043.97;;;30.09;36.21
43818;BME280;29868;47.360;18.984;2022-08-01T15:43:34;100048.03;;;30.14;35.78
43818;BME280;29868;47.360;18.984;2022-08-01T15:45:59;100044.81;;;30.22;35.37
43818;BME280;29868;47.360;18.984;2022-08-01T15:48:26;100046.09;;;30.03;35.51
43818;BME280;29868;47.360;18.984;2022-08-01T15:50:51;100045.91;;;29.94;35.35
43818;BME280;29868;47.360;18.984;2022-08-01T15:53:16;100044.38;;;30.02;36.00
43818;BME280;29868;47.360;18.984;2022-08-01T15:55:42;100047.06;;;29.90;36.32
43818;BME280;29868;47.360;18.984;2022-08-01T15:58:07;100049.06;;;30.12;36.02
43818;BME280;29868;47.360;18.984;2022-08-01T16:00:33;100050.16;;;29.84;35.83
43818;BME280;29868;47.360;18.984;2022-08-01T16:02:59;100045.03;;;29.93;35.86
43818;BME280;29868;47.360;18.984;2022-08-01T16:05:24;100044.59;;;29.87;35.94
43818;BME280;29868;47.360;18.984;2022-08-01T16:07:50;100047.16;;;29.75;36.53
43818;BME280;29868;47.360;18.984;2022-08-01T16:10:15;100046.09;;;29.65;36.65
43818;BME280;29868;47.360;18.984;2022-08-01T16:12:41;100052.19;;;29.80;36.78
43818;BME280;29868;47.360;18.984;2022-08-01T16:15:07;100042.41;;;29.53;36.17
43818;BME280;29868;47.360;18.984;2022-08-01T16:17:33;100049.63;;;29.66;37.39
43818;BME280;29868;47.360;18.984;2022-08-01T16:19:59;100061.50;;;29.62;37.22
43818;BME280;29868;47.360;18.984;2022-08-01T16:22:24;100052.59;;;29.61;36.81
43818;BME280;29868;47.360;18.984;2022-08-01T16:24:50;100051.81;;;29.46;37.32
43818;BME280;29868;47.360;18.984;2022-08-01T16:27:16;100045.59;;;29.46;37.59
43818;BME280;29868;47.360;18.984;2022-08-01T16:29:41;100047.31;;;29.47;37.47
43818;BME280;29868;47.360;18.984;2022-08-01T16:32:07;100047.94;;;29.38;37.45
43818;BME280;29868;47.360;18.984;2022-08-01T16:34:32;100046.00;;;29.40;37.41
43818;BME280;29868;47.360;18.984;2022-08-01T16:36:58;100052.25;;;29.40;37.73
43818;BME280;29868;47.360;18.984;2022-08-01T16:39:23;100041.22;;;29.45;37.64
43818;BME280;29868;47.360;18.984;2022-08-01T16:41:50;100052.44;;;29.37;38.13
43818;BME280;29868;47.360;18.984;2022-08-01T16:44:15;100046.50;;;29.19;38.82
43818;BME280;29868;47.360;18.984;2022-08-01T16:46:41;100049.06;;;29.21;38.92
43818;BME280;29868;47.360;18.984;2022-08-01T16:49:06;100047.78;;;29.14;38.30
43818;BME280;29868;47.360;18.984;2022-08-01T16:51:32;100052.47;;;29.10;38.19
43818;BME280;29868;47.360;18.984;2022-08-01T16:53:59;100049.22;;;29.05;37.95
43818;BME280;29868;47.360;18.984;2022-08-01T16:56:24;100046.38;;;28.94;38.07
43818;BME280;29868;47.360;18.984;2022-08-01T16:58:50;100052.31;;;28.99;38.30
43818;BME280;29868;47.360;18.984;2022-08-01T17:01:16;100050.66;;;28.96;37.96
43818;BME280;29868;47.360;18.984;2022-08-01T17:03:45;100054.22;;;28.82;38.39
43818;BME280;29868;47.360;18.984;2022-08-01T17:06:11;100054.34;;;28.81;38.91
43818;BME280;29868;47.360;18.984;2022-08-01T17:08:37;100060.53;;;28.81;38.81
43818;BME280;29868;47.360;18.984;2022-08-01T17:11:03;100060.53;;;28.81;38.73
43818;BME280;29868;47.360;18.984;2022-08-01T17:13:28;100054.13;;;28.57;39.53
43818;BME280;29868;47.360;18.984;2022-08-01T17:15:54;100056.63;;;28.46;39.66
43818;BME280;29868;47.360;18.984;2022-08-01T17:18:19;100064.03;;;28.26;40.20
43818;BME280;29868;47.360;18.984;2022-08-01T17:20:45;100063.44;;;28.21;40.24
43818;BME280;29868;47.360;18.984;2022-08-01T17:23:12;100063.44;;;28.07;40.56
43818;BME280;29868;47.360;18.984;2022-08-01T17:25:38;100075.38;;;28.01;40.77
43818;BME280;29868;47.360;18.984;2022-08-01T17:28:03;100073.53;;;27.87;41.53
43818;BME280;29868;47.360;18.984;2022-08-01T17:30:29;100076.59;;;27.81;41.61
43818;BME280;29868;47.360;18.984;2022-08-01T17:32:55;100068.63;;;27.65;42.25
43818;BME280;29868;47.360;18.984;2022-08-01T17:35:20;100086.13;;;27.55;42.18
43818;BME280;29868;47.360;18.984;2022-08-01T17:37:45;100082.94;;;27.49;42.56
43818;BME280;29868;47.360;18.984;2022-08-01T17:40:11;100079.88;;;27.40;42.95
43818;BME280;29868;47.360;18.984;2022-08-01T17:42:38;100069.72;;;27.31;43.54
43818;BME280;29868;47.360;18.984;2022-08-01T17:45:09;100076.16;;;27.13;43.90
43818;BME280;29868;47.360;18.984;2022-08-01T17:47:35;100080.41;;;27.00;44.46
43818;BME280;29868;47.360;18.984;2022-08-01T17:50:00;100074.94;;;26.87;44.97
43818;BME280;29868;47.360;18.984;2022-08-01T17:52:28;100074.41;;;26.80;45.55
43818;BME280;29868;47.360;18.984;2022-08-01T17:54:54;100080.28;;;26.71;45.79
43818;BME280;29868;47.360;18.984;2022-08-01T17:57:19;100073.56;;;26.64;46.46
43818;BME280;29868;47.360;18.984;2022-08-01T17:59:44;100076.44;;;26.59;46.50
43818;BME280;29868;47.360;18.984;2022-08-01T18:02:10;100079.72;;;26.49;47.46
43818;BME280;29868;47.360;18.984;2022-08-01T18:04:35;100074.31;;;26.33;47.97
43818;BME280;29868;47.360;18.984;2022-08-01T18:07:01;100072.00;;;26.27;48.38
43818;BME280;29868;47.360;18.984;2022-08-01T18:09:26;100079.81;;;26.14;48.77
43818;BME280;29868;47.360;18.984;2022-08-01T18:11:56;100076.75;;;26.04;49.35
43818;BME280;29868;47.360;18.984;2022-08-01T18:14:22;100085.56;;;25.89;50.37
43818;BME280;29868;47.360;18.984;2022-08-01T18:16:47;100084.41;;;25.76;50.64
43818;BME280;29868;47.360;18.984;2022-08-01T18:19:12;100084.03;;;25.66;51.15
43818;BME280;29868;47.360;18.984;2022-08-01T18:21:38;100089.28;;;25.50;51.74
43818;BME280;29868;47.360;18.984;2022-08-01T18:24:03;100088.78;;;25.42;52.28
43818;BME280;29868;47.360;18.984;2022-08-01T18:26:30;100093.25;;;25.24;52.78
43818;BME280;29868;47.360;18.984;2022-08-01T18:28:55;100096.91;;;25.21;53.00
43818;BME280;29868;47.360;18.984;2022-08-01T18:31:21;100097.91;;;25.19;55.67
43818;BME280;29868;47.360;18.984;2022-08-01T18:33:48;100088.44;;;24.94;55.40
43818;BME280;29868;47.360;18.984;2022-08-01T18:36:14;100094.97;;;24.87;56.04
43818;BME280;29868;47.360;18.984;2022-08-01T18:38:40;100098.16;;;24.76;57.63
43818;BME280;29868;47.360;18.984;2022-08-01T18:41:05;100101.16;;;24.50;59.25
43818;BME280;29868;47.360;18.984;2022-08-01T18:43:34;100107.31;;;24.50;59.89
43818;BME280;29868;47.360;18.984;2022-08-01T18:46:01;100104.69;;;24.30;60.35
43818;BME280;29868;47.360;18.984;2022-08-01T18:48:28;100106.09;;;24.39;58.41
43818;BME280;29868;47.360;18.984;2022-08-01T18:50:54;100114.78;;;24.42;58.94
43818;BME280;29868;47.360;18.984;2022-08-01T18:53:19;100115.81;;;24.38;58.82
43818;BME280;29868;47.360;18.984;2022-08-01T18:55:46;100121.59;;;24.27;60.70
43818;BME280;29868;47.360;18.984;2022-08-01T18:58:11;100128.44;;;24.13;62.58
43818;BME280;29868;47.360;18.984;2022-08-01T19:00:37;100129.19;;;23.96;63.12
43818;BME280;29868;47.360;18.984;2022-08-01T19:03:03;100129.41;;;23.91;64.45
43818;BME280;29868;47.360;18.984;2022-08-01T19:05:29;100130.19;;;23.73;65.92
43818;BME280;29868;47.360;18.984;2022-08-01T19:07:54;100122.00;;;23.57;67.81
43818;BME280;29868;47.360;18.984;2022-08-01T19:10:20;100129.72;;;23.41;70.67
43818;BME280;29868;47.360;18.984;2022-08-01T19:12:45;100139.81;;;23.31;70.93
43818;BME280;29868;47.360;18.984;2022-08-01T19:15:10;100139.47;;;23.19;73.75
43818;BME280;29868;47.360;18.984;2022-08-01T19:17:36;100143.38;;;23.09;76.12
43818;BME280;29868;47.360;18.984;2022-08-01T19:20:02;100141.91;;;23.01;75.45
43818;BME280;29868;47.360;18.984;2022-08-01T19:22:27;100145.69;;;22.94;76.45
43818;BME280;29868;47.360;18.984;2022-08-01T19:24:53;100150.59;;;22.81;79.39
43818;BME280;29868;47.360;18.984;2022-08-01T19:27:20;100141.66;;;22.84;78.85
43818;BME280;29868;47.360;18.984;2022-08-01T19:29:52;100149.41;;;23.56;69.27
43818;BME280;29868;47.360;18.984;2022-08-01T19:32:20;100154.72;;;23.78;70.56
43818;BME280;29868;47.360;18.984;2022-08-01T19:34:56;100157.66;;;23.72;68.04